createdAt,value
2023-03-11T00:03:33.651Z,5.62
2023-03-11T00:06:20.749Z,5.63
2023-03-11T00:09:08.151Z,5.74
2023-03-11T00:11:55.174Z,5.73
2023-03-11T00:14:42.271Z,5.63
2023-03-11T00:17:29.360Z,5.53
2023-03-11T00:20:29.009Z,5.65
2023-03-11T00:23:16.399Z,5.38
2023-03-11T00:26:11.474Z,5.65
2023-03-11T00:28:58.595Z,5.49
2023-03-11T00:31:45.733Z,5.44
2023-03-11T00:34:40.974Z,5.62
2023-03-11T00:37:28.022Z,5.58
2023-03-11T00:40:17.945Z,5.40
2023-03-11T00:43:05.065Z,5.35
2023-03-11T00:45:54.206Z,5.37
2023-03-11T00:48:41.349Z,5.50
2023-03-11T00:51:28.410Z,5.43
2023-03-11T00:54:15.554Z,5.44
2023-03-11T00:57:02.638Z,5.27
2023-03-11T00:59:49.765Z,5.31
2023-03-11T01:02:37.282Z,5.27
2023-03-11T01:05:27.962Z,5.50
2023-03-11T01:08:15.016Z,5.44
2023-03-11T01:11:03.186Z,5.49
2023-03-11T01:13:50.264Z,5.48
2023-03-11T01:16:37.374Z,5.45
2023-03-11T01:19:24.463Z,5.38
2023-03-11T01:22:11.543Z,5.43
2023-03-11T01:24:58.637Z,5.35
2023-03-11T01:27:45.940Z,5.42
2023-03-11T01:30:33.010Z,5.21
2023-03-11T01:33:20.125Z,4.84
2023-03-11T01:36:07.588Z,4.95
2023-03-11T01:38:54.712Z,4.89
2023-03-11T01:41:41.860Z,4.88
2023-03-11T01:44:29.021Z,4.63
2023-03-11T01:47:37.617Z,4.47
2023-03-11T01:50:27.533Z,4.44
2023-03-11T01:53:17.716Z,4.34
2023-03-11T01:56:05.647Z,4.24
2023-03-11T01:58:54.638Z,4.27
2023-03-11T02:01:53.043Z,4.16
2023-03-11T02:04:41.165Z,4.02
2023-03-11T02:07:29.602Z,4.09
2023-03-11T02:10:16.886Z,3.89
2023-03-11T02:13:04.544Z,3.81
2023-03-11T02:15:52.410Z,3.77
2023-03-11T02:18:39.923Z,3.83
2023-03-11T02:21:29.802Z,3.74
2023-03-11T02:24:34.981Z,3.76
2023-03-11T02:27:22.680Z,3.79
2023-03-11T02:30:12.340Z,3.70
2023-03-11T02:32:59.823Z,3.62
2023-03-11T02:35:47.097Z,3.55
2023-03-11T02:38:34.197Z,3.66
2023-03-11T02:41:21.328Z,3.63
2023-03-11T02:44:11.581Z,3.51
2023-03-11T02:46:58.619Z,3.58
2023-03-11T02:49:45.947Z,3.59
2023-03-11T02:52:34.944Z,3.46
2023-03-11T02:55:22.142Z,3.54
2023-03-11T02:58:09.518Z,3.42
2023-03-11T03:00:56.823Z,3.35
2023-03-11T03:03:44.202Z,3.29
2023-03-11T03:06:31.281Z,3.56
2023-03-11T03:09:18.531Z,3.51
2023-03-11T03:12:06.080Z,3.30
2023-03-11T03:14:53.198Z,3.36
2023-03-11T03:17:40.358Z,3.17
2023-03-11T03:20:27.599Z,3.05
2023-03-11T03:23:14.669Z,2.97
2023-03-11T03:26:02.605Z,2.85
2023-03-11T03:28:49.720Z,2.93
2023-03-11T03:31:38.537Z,2.79
2023-03-11T03:34:25.692Z,2.78
2023-03-11T03:37:12.779Z,2.62
2023-03-11T03:39:59.839Z,2.59
2023-03-11T03:42:46.946Z,2.62
2023-03-11T03:45:34.049Z,2.38
2023-03-11T03:48:21.184Z,2.62
2023-03-11T03:51:11.937Z,2.45
2023-03-11T03:53:59.063Z,2.43
2023-03-11T03:56:46.099Z,2.36
2023-03-11T03:59:33.225Z,2.40
2023-03-11T04:02:20.604Z,2.35
2023-03-11T04:05:08.320Z,2.24
2023-03-11T04:07:55.379Z,2.13
2023-03-11T04:10:42.508Z,2.28
2023-03-11T04:13:29.624Z,2.34
2023-03-11T04:16:22.590Z,2.21
2023-03-11T04:19:10.215Z,1.74
2023-03-11T04:22:00.193Z,2.01
2023-03-11T04:24:47.516Z,1.96
2023-03-11T04:27:34.625Z,1.88
2023-03-11T04:30:22.102Z,2.03
2023-03-11T04:33:09.503Z,1.99
2023-03-11T04:35:57.235Z,2.03
2023-03-11T04:38:45.903Z,2.02
2023-03-11T04:41:32.997Z,1.85
2023-03-11T04:44:20.083Z,1.90
2023-03-11T04:47:07.207Z,1.96
2023-03-11T04:49:56.260Z,2.09
2023-03-11T04:52:43.372Z,1.85
2023-03-11T04:55:30.419Z,1.82
2023-03-11T04:58:17.451Z,1.91
2023-03-11T05:01:06.664Z,1.82
2023-03-11T05:03:53.798Z,1.92
2023-03-11T05:06:40.865Z,1.94
2023-03-11T05:09:27.901Z,1.73
2023-03-11T05:12:14.963Z,1.77
2023-03-11T05:15:02.067Z,1.86
2023-03-11T05:17:49.221Z,1.74
2023-03-11T05:20:36.412Z,1.82
2023-03-11T05:23:23.479Z,1.71
2023-03-11T05:26:10.832Z,1.67
2023-03-11T05:29:00.890Z,1.68
2023-03-11T05:31:48.441Z,1.71
2023-03-11T05:34:35.566Z,1.68
2023-03-11T05:37:22.721Z,1.64
2023-03-11T05:40:12.363Z,1.83
2023-03-11T05:42:59.420Z,1.68
2023-03-11T05:45:46.484Z,1.49
2023-03-11T05:48:33.555Z,1.65
2023-03-11T05:51:20.967Z,1.50
2023-03-11T05:54:15.273Z,1.56
2023-03-11T05:57:02.581Z,1.62
2023-03-11T05:59:49.725Z,1.60
2023-03-11T06:02:36.876Z,1.61
2023-03-11T06:05:23.988Z,1.83
2023-03-11T06:08:11.160Z,1.79
2023-03-11T06:11:10.922Z,1.83
2023-03-11T06:13:58.839Z,1.85
2023-03-11T06:16:45.953Z,1.71
2023-03-11T06:19:33.166Z,1.97
2023-03-11T06:22:26.475Z,2.03
2023-03-11T06:25:13.661Z,1.89
2023-03-11T06:28:00.780Z,2.07
2023-03-11T06:30:47.844Z,2.05
2023-03-11T06:33:35.117Z,2.22
2023-03-11T06:36:23.122Z,2.40
2023-03-11T06:39:13.668Z,2.43
2023-03-11T06:42:00.858Z,2.53
2023-03-11T06:44:50.597Z,2.29
2023-03-11T06:47:37.713Z,2.52
2023-03-11T06:50:26.139Z,2.44
2023-03-11T06:53:15.289Z,2.45
2023-03-11T06:56:07.338Z,2.48
2023-03-11T06:58:54.904Z,2.50
2023-03-11T07:01:42.034Z,2.58
2023-03-11T07:04:29.534Z,2.63
2023-03-11T07:07:17.194Z,2.72
2023-03-11T07:10:05.448Z,2.67
2023-03-11T07:12:55.078Z,2.79
2023-03-11T07:15:42.378Z,2.81
2023-03-11T07:18:29.611Z,3.02
2023-03-11T07:21:23.691Z,2.90
2023-03-11T07:24:13.470Z,2.93
2023-03-11T07:27:00.618Z,2.97
2023-03-11T07:29:50.800Z,2.86
2023-03-11T07:32:38.022Z,2.98
2023-03-11T07:35:25.168Z,3.01
2023-03-11T07:38:12.772Z,3.27
2023-03-11T07:41:00.802Z,3.27
2023-03-11T07:43:47.945Z,3.16
2023-03-11T07:46:34.983Z,3.06
2023-03-11T07:49:22.178Z,3.08
2023-03-11T07:52:09.263Z,3.93
2023-03-11T07:54:56.731Z,4.39
2023-03-11T07:57:43.871Z,4.98
2023-03-11T08:01:20.100Z,4.77
2023-03-11T08:04:16.749Z,4.36
2023-03-11T08:07:04.159Z,4.26
2023-03-11T08:09:51.255Z,4.65
2023-03-11T08:12:38.356Z,4.68
2023-03-11T08:15:25.497Z,4.48
2023-03-11T08:18:12.990Z,4.30
2023-03-11T08:21:21.133Z,4.26
2023-03-11T08:24:10.673Z,4.16
2023-03-11T08:26:57.765Z,4.79
2023-03-11T08:29:45.069Z,5.28
2023-03-11T08:32:33.070Z,5.47
2023-03-11T08:35:20.221Z,4.97
2023-03-11T08:38:07.529Z,5.69
2023-03-11T08:40:54.575Z,6.43
2023-03-11T08:43:42.547Z,5.86
2023-03-11T08:46:48.210Z,5.35
2023-03-11T08:49:35.540Z,5.67
2023-03-11T08:52:22.750Z,5.61
2023-03-11T08:55:14.060Z,5.73
2023-03-11T08:58:01.530Z,5.91
2023-03-11T09:00:48.599Z,5.64
2023-03-11T09:03:36.514Z,5.42
2023-03-11T09:06:24.588Z,5.65
2023-03-11T09:09:12.799Z,5.85
2023-03-11T09:11:59.860Z,6.22
2023-03-11T09:14:46.963Z,6.72
2023-03-11T09:17:34.075Z,7.27
2023-03-11T09:20:21.305Z,6.72
2023-03-11T09:23:10.118Z,6.74
2023-03-11T09:25:57.142Z,6.08
2023-03-11T09:28:49.201Z,5.65
2023-03-11T09:31:36.555Z,5.97
2023-03-11T09:34:23.833Z,5.42
2023-03-11T09:37:10.909Z,5.52
2023-03-11T09:39:58.111Z,5.67
2023-03-11T09:43:06.678Z,5.36
2023-03-11T09:46:26.167Z,4.97
2023-03-11T09:49:51.206Z,5.02
2023-03-11T09:52:46.316Z,5.28
2023-03-11T09:55:39.817Z,5.64
2023-03-11T09:58:38.017Z,5.63
2023-03-11T10:01:30.887Z,5.94
2023-03-11T10:04:29.053Z,5.27
2023-03-11T10:07:22.208Z,5.58
2023-03-11T10:10:14.752Z,5.28
2023-03-11T10:13:25.605Z,5.02
2023-03-11T10:16:25.024Z,5.03
2023-03-11T10:19:21.476Z,5.23
2023-03-11T10:22:39.227Z,5.29
2023-03-11T10:26:03.209Z,5.30
2023-03-11T10:29:07.729Z,5.17
2023-03-11T10:32:27.126Z,5.12
2023-03-11T10:35:23.367Z,5.75
2023-03-11T10:38:18.923Z,5.77
2023-03-11T10:41:16.318Z,5.87
2023-03-11T10:44:13.141Z,6.23
2023-03-11T10:47:00.528Z,6.27
2023-03-11T10:49:47.696Z,5.43
2023-03-11T10:52:44.845Z,5.79
2023-03-11T10:55:32.023Z,5.81
2023-03-11T10:58:23.834Z,5.77
2023-03-11T11:01:16.760Z,6.47
2023-03-11T11:04:04.299Z,6.10
2023-03-11T11:06:51.481Z,5.56
2023-03-11T11:09:38.608Z,5.81
2023-03-11T11:12:25.662Z,5.47
2023-03-11T11:15:22.359Z,5.00
2023-03-11T11:18:21.075Z,5.45
2023-03-11T11:21:14.155Z,5.56
2023-03-11T11:24:22.516Z,5.59
2023-03-11T11:27:26.380Z,6.10
2023-03-11T11:30:17.197Z,6.48
2023-03-11T11:33:32.116Z,6.80
2023-03-11T11:36:24.331Z,7.04
2023-03-11T11:39:18.674Z,7.23
2023-03-11T11:42:08.655Z,7.11
2023-03-11T11:45:05.820Z,6.50
2023-03-11T11:47:58.204Z,6.95
2023-03-11T11:50:59.365Z,6.98
2023-03-11T11:53:55.493Z,5.61
2023-03-11T11:56:42.731Z,5.52
2023-03-11T11:59:30.987Z,5.32
2023-03-11T12:02:45.904Z,5.23
2023-03-11T12:05:43.167Z,5.54
2023-03-11T12:08:34.647Z,5.43
2023-03-11T12:11:33.069Z,5.28
2023-03-11T12:14:41.542Z,5.31
2023-03-11T12:17:31.340Z,5.52
2023-03-11T12:20:48.164Z,5.45
2023-03-11T12:23:57.283Z,5.05
2023-03-11T12:26:47.884Z,5.07
2023-03-11T12:29:43.270Z,5.39
2023-03-11T12:32:41.973Z,4.61
2023-03-11T12:35:48.793Z,4.78
2023-03-11T12:38:46.202Z,4.69
2023-03-11T12:41:41.476Z,4.71
2023-03-11T12:44:30.812Z,4.91
2023-03-11T12:47:20.803Z,4.89
2023-03-11T12:50:40.885Z,4.96
2023-03-11T12:53:49.098Z,4.59
2023-03-11T12:56:43.729Z,4.68
2023-03-11T13:00:10.067Z,4.70
2023-03-11T13:03:12.740Z,4.88
2023-03-11T13:06:21.578Z,4.42
2023-03-11T13:09:33.524Z,4.61
2023-03-11T13:12:45.712Z,4.52
2023-03-11T13:15:36.526Z,4.22
2023-03-11T13:18:25.216Z,4.62
2023-03-11T13:21:27.557Z,4.56
2023-03-11T13:24:31.540Z,4.33
2023-03-11T13:27:33.088Z,4.62
2023-03-11T13:30:29.834Z,4.56
2023-03-11T13:33:38.089Z,4.71
2023-03-11T13:37:05.790Z,4.87
2023-03-11T13:40:14.418Z,4.75
2023-03-11T13:43:04.380Z,4.85
2023-03-11T13:45:56.875Z,4.93
2023-03-11T13:48:49.529Z,5.22
2023-03-11T13:51:45.602Z,4.84
2023-03-11T13:54:49.539Z,5.20
2023-03-11T13:57:38.134Z,5.31
2023-03-11T14:00:28.744Z,4.81
2023-03-11T14:03:21.255Z,5.10
2023-03-11T14:06:13.532Z,5.01
2023-03-11T14:09:00.695Z,4.80
2023-03-11T14:11:49.069Z,5.21
2023-03-11T14:14:49.450Z,4.91
2023-03-11T14:17:38.416Z,4.84
2023-03-11T14:20:27.678Z,4.90
2023-03-11T14:23:19.777Z,5.22
2023-03-11T14:26:09.889Z,4.97
2023-03-11T14:29:00.934Z,4.97
2023-03-11T14:31:48.213Z,5.13
2023-03-11T14:34:40.626Z,4.90
2023-03-11T14:37:36.321Z,4.97
2023-03-11T14:40:25.686Z,4.88
2023-03-11T14:43:21.707Z,4.78
2023-03-11T14:46:21.003Z,4.77
2023-03-11T14:49:13.753Z,5.13
2023-03-11T14:52:08.848Z,5.24
2023-03-11T14:54:57.463Z,4.94
2023-03-11T14:58:19.780Z,4.62
2023-03-11T15:01:16.219Z,4.97
2023-03-11T15:04:12.983Z,5.16
2023-03-11T15:07:01.732Z,4.36
2023-03-11T15:09:49.761Z,4.76
2023-03-11T15:13:03.833Z,4.68
2023-03-11T15:16:06.748Z,4.41
2023-03-11T15:18:56.242Z,4.38
2023-03-11T15:21:48.475Z,4.43
2023-03-11T15:24:35.794Z,4.38
2023-03-11T15:27:33.162Z,4.11
2023-03-11T15:30:31.361Z,4.17
2023-03-11T15:33:35.209Z,4.40
2023-03-11T15:36:39.675Z,4.24
2023-03-11T15:39:33.400Z,4.14
2023-03-11T15:42:26.212Z,3.75
2023-03-11T15:45:21.128Z,3.77
2023-03-11T15:48:12.157Z,3.94
2023-03-11T15:51:00.770Z,3.98
2023-03-11T15:53:48.799Z,3.83
2023-03-11T15:56:36.139Z,3.51
2023-03-11T15:59:25.822Z,3.67
2023-03-11T16:02:22.892Z,3.79
2023-03-11T16:05:15.361Z,3.67
2023-03-11T16:08:05.503Z,3.87
2023-03-11T16:10:52.554Z,3.74
2023-03-11T16:13:40.112Z,3.59
2023-03-11T16:16:28.690Z,3.96
2023-03-11T16:19:16.305Z,4.05
2023-03-11T16:22:31.809Z,3.69
2023-03-11T16:25:27.317Z,3.69
2023-03-11T16:28:17.237Z,3.75
2023-03-11T16:31:24.458Z,3.71
2023-03-11T16:34:17.986Z,3.43
2023-03-11T16:37:08.919Z,3.51
2023-03-11T16:39:56.471Z,3.60
2023-03-11T16:42:44.683Z,3.58
2023-03-11T16:45:32.779Z,3.57
2023-03-11T16:48:21.197Z,3.31
2023-03-11T16:51:08.773Z,3.37
2023-03-11T16:53:56.713Z,3.43
2023-03-11T16:56:50.120Z,3.47
2023-03-11T16:59:37.796Z,3.31
2023-03-11T17:02:25.497Z,3.30
2023-03-11T17:05:16.544Z,3.23
2023-03-11T17:08:04.975Z,3.32
2023-03-11T17:10:55.436Z,3.20
2023-03-11T17:13:44.115Z,3.25
2023-03-11T17:16:35.798Z,3.26
2023-03-11T17:19:24.484Z,3.21
2023-03-11T17:22:12.551Z,3.18
2023-03-11T17:25:02.221Z,3.19
2023-03-11T17:27:50.630Z,3.12
2023-03-11T17:30:43.701Z,3.13
2023-03-11T17:33:31.691Z,2.99
2023-03-11T17:36:20.057Z,2.95
2023-03-11T17:39:10.827Z,2.55
2023-03-11T17:41:58.808Z,2.52
2023-03-11T17:44:51.736Z,2.44
2023-03-11T17:47:39.913Z,2.75
2023-03-11T17:50:27.321Z,2.62
2023-03-11T17:53:15.253Z,2.74
2023-03-11T17:56:05.754Z,2.80
2023-03-11T17:58:55.663Z,2.63
2023-03-11T18:01:43.758Z,2.62
2023-03-11T18:04:32.003Z,2.58
2023-03-11T18:07:24.580Z,2.65
2023-03-11T18:10:15.107Z,2.63
2023-03-11T18:13:03.097Z,2.51
2023-03-11T18:16:01.991Z,2.26
2023-03-11T18:18:52.254Z,2.21
2023-03-11T18:21:39.671Z,2.14
2023-03-11T18:24:27.464Z,2.13
2023-03-11T18:27:15.904Z,1.84
2023-03-11T18:30:05.235Z,2.05
2023-03-11T18:32:53.090Z,1.96
2023-03-11T18:35:42.002Z,1.65
2023-03-11T18:38:29.463Z,1.90
2023-03-11T18:41:17.270Z,1.89
2023-03-11T18:44:06.877Z,2.08
2023-03-11T18:46:54.724Z,1.86
2023-03-11T18:49:43.324Z,1.66
2023-03-11T18:52:32.366Z,1.88
2023-03-11T18:55:21.918Z,1.75
2023-03-11T18:58:11.719Z,1.81
2023-03-11T19:01:15.314Z,1.99
2023-03-11T19:04:04.578Z,1.74
2023-03-11T19:06:53.628Z,1.86
2023-03-11T19:09:41.613Z,1.69
2023-03-11T19:12:31.338Z,1.76
2023-03-11T19:15:23.568Z,1.57
2023-03-11T19:18:11.780Z,1.40
2023-03-11T19:21:01.162Z,1.34
2023-03-11T19:23:50.446Z,1.34
2023-03-11T19:26:46.857Z,1.32
2023-03-11T19:29:34.586Z,1.33
2023-03-11T19:32:23.755Z,1.49
2023-03-11T19:35:14.091Z,1.39
2023-03-11T19:38:01.874Z,1.23
2023-03-11T19:41:02.322Z,1.33
2023-03-11T19:43:50.541Z,1.27
2023-03-11T19:46:38.605Z,1.15
2023-03-11T19:49:26.274Z,1.07
2023-03-11T19:52:15.236Z,0.87
2023-03-11T19:55:05.272Z,0.86
2023-03-11T19:57:53.424Z,0.70
2023-03-11T20:00:42.676Z,0.75
2023-03-11T20:03:32.244Z,0.49
2023-03-11T20:06:21.795Z,0.37
2023-03-11T20:09:09.645Z,0.20
2023-03-11T20:11:57.437Z,0.31
2023-03-11T20:14:46.712Z,0.23
2023-03-11T20:17:35.851Z,0.08
2023-03-11T20:20:24.051Z,0.15
2023-03-11T20:23:13.523Z,0.20
2023-03-11T20:26:04.983Z,0.18
2023-03-11T20:28:56.719Z,0.05
2023-03-11T20:31:45.303Z,0.12
2023-03-11T20:34:34.456Z,0.24
2023-03-11T20:37:23.820Z,0.10
2023-03-11T20:40:14.913Z,0.06
2023-03-11T20:43:02.553Z,0.06
2023-03-11T20:45:50.327Z,-0.02
2023-03-11T20:48:39.357Z,-0.04
2023-03-11T20:51:27.241Z,-0.12
2023-03-11T20:54:16.236Z,-0.21
2023-03-11T20:57:03.979Z,-0.32
2023-03-11T20:59:51.776Z,-0.27
2023-03-11T21:02:41.366Z,-0.46
2023-03-11T21:05:29.220Z,-0.41
2023-03-11T21:08:17.080Z,-0.61
2023-03-11T21:11:05.111Z,-0.56
2023-03-11T21:13:55.596Z,-0.70
2023-03-11T21:16:43.488Z,-0.72
2023-03-11T21:19:31.439Z,-0.75
2023-03-11T21:22:19.728Z,-0.58
2023-03-11T21:25:08.687Z,-0.77
2023-03-11T21:27:56.461Z,-0.80
2023-03-11T21:30:44.506Z,-0.88
2023-03-11T21:33:33.013Z,-0.83
2023-03-11T21:36:20.674Z,-0.81
2023-03-11T21:39:08.110Z,-0.88
2023-03-11T21:41:57.507Z,-0.86
2023-03-11T21:44:45.427Z,-0.96
2023-03-11T21:47:32.697Z,-1.00
2023-03-11T21:50:20.091Z,-0.83
2023-03-11T21:53:08.095Z,-0.75
2023-03-11T21:55:55.435Z,-0.95
2023-03-11T21:58:43.080Z,-0.96
2023-03-11T22:01:30.443Z,-1.23
2023-03-11T22:04:17.639Z,-1.13
2023-03-11T22:07:04.935Z,-1.21
2023-03-11T22:09:53.488Z,-1.28
2023-03-11T22:12:40.731Z,-1.27
2023-03-11T22:15:28.885Z,-1.41
2023-03-11T22:18:16.232Z,-1.37
2023-03-11T22:21:03.690Z,-1.26
2023-03-11T22:23:50.802Z,-1.40
2023-03-11T22:26:37.834Z,-1.31
2023-03-11T22:29:24.948Z,-1.47
2023-03-11T22:32:12.076Z,-1.42
2023-03-11T22:34:59.151Z,-1.42
2023-03-11T22:37:46.216Z,-1.32
2023-03-11T22:40:35.369Z,-1.24
2023-03-11T22:43:22.428Z,-1.22
2023-03-11T22:46:09.721Z,-1.22
2023-03-11T22:48:56.897Z,-1.14
2023-03-11T22:51:44.028Z,-1.23
2023-03-11T22:54:31.179Z,-1.18
2023-03-11T22:57:18.477Z,-1.14
2023-03-11T23:00:17.277Z,-1.18
2023-03-11T23:03:04.642Z,-1.24
2023-03-11T23:05:51.739Z,-1.40
2023-03-11T23:08:38.848Z,-1.24
2023-03-11T23:11:26.109Z,-1.19
2023-03-11T23:14:13.197Z,-1.20
2023-03-11T23:17:00.272Z,-1.13
2023-03-11T23:19:47.423Z,-1.28
2023-03-11T23:22:38.684Z,-1.18
2023-03-11T23:25:25.972Z,-1.10
2023-03-11T23:28:13.027Z,-1.15
2023-03-11T23:31:05.047Z,-1.25
2023-03-11T23:33:52.081Z,-1.23
2023-03-11T23:36:39.205Z,-1.10
2023-03-11T23:39:26.274Z,-1.20
2023-03-11T23:42:24.813Z,-1.10
2023-03-11T23:45:12.686Z,-1.02
2023-03-11T23:47:59.745Z,-1.10
2023-03-11T23:50:50.780Z,-1.04
2023-03-11T23:53:38.733Z,-1.04
2023-03-11T23:56:25.839Z,-1.05
2023-03-11T23:59:12.964Z,-1.01
